Time;durP1;ratioP1;P1;durP2;ratioP2;P2;SDS_P1;SDS_P2;PMS_P1;PMS_P2;Temp;Humidity;BMP_temperature;BMP_pressure;BME280_temperature;BME280_humidity;BME280_pressure;Samples;Min_cycle;Max_cycle;Signal;HPM_P1;HPM_P2
2022/01/30 00:00:44;;;;;;;4.45;1.52;;;;;;;;;;5022320;28;20341;-67
2022/01/30 00:03:11;;;;;;;6.68;1.70;;;;;;;;;;5023310;28;20084;-67
2022/01/30 00:05:37;;;;;;;5.43;2.15;;;;;;;;;;5024292;28;20028;-67
2022/01/30 00:08:04;;;;;;;2.85;1.50;;;;;;;;;;5030336;28;20024;-67
2022/01/30 00:10:36;;;;;;;7.25;2.00;;;;;;;;;;5030513;28;20499;-67
2022/01/30 00:13:04;;;;;;;3.95;1.70;;;;;;;;;;5030710;28;20435;-67
2022/01/30 00:15:44;;;;;;;6.53;1.80;;;;;;;;;;5026375;28;20076;-67
2022/01/30 00:18:22;;;;;;;3.88;1.58;;;;;;;;;;5030442;28;20013;-67
2022/01/30 00:21:03;;;;;;;3.50;1.58;;;;;;;;;;5026436;28;20029;-67
2022/01/30 00:23:31;;;;;;;4.63;2.10;;;;;;;;;;5028198;28;20153;-67
2022/01/30 00:25:58;;;;;;;2.85;1.50;;;;;;;;;;5029009;28;20254;-67
2022/01/30 00:28:26;;;;;;;4.90;1.60;;;;;;;;;;5030479;28;20048;-67
2022/01/30 00:30:53;;;;;;;4.25;1.77;;;;;;;;;;5029463;28;20108;-67
2022/01/30 00:33:20;;;;;;;3.22;1.40;;;;;;;;;;5030186;28;20025;-69
2022/01/30 00:35:47;;;;;;;4.28;1.60;;;;;;;;;;5030268;28;20053;-67
2022/01/30 00:38:19;;;;;;;3.97;1.92;;;;;;;;;;5028900;28;20477;-67
2022/01/30 00:40:46;;;;;;;5.65;1.65;;;;;;;;;;5027212;28;20064;-67
2022/01/30 00:43:13;;;;;;;4.25;1.30;;;;;;;;;;5030035;28;20026;-67
2022/01/30 00:45:39;;;;;;;3.75;1.40;;;;;;;;;;5030025;28;20592;-68
2022/01/30 00:48:06;;;;;;;7.90;2.28;;;;;;;;;;5028670;28;20028;-67
2022/01/30 00:50:32;;;;;;;4.10;1.50;;;;;;;;;;5030068;28;20025;-67
2022/01/30 00:52:58;;;;;;;5.00;2.42;;;;;;;;;;5029867;28;20018;-67
2022/01/30 00:55:28;;;;;;;5.10;1.98;;;;;;;;;;5028757;28;20022;-67
2022/01/30 00:57:55;;;;;;;4.35;1.50;;;;;;;;;;5029158;28;20507;-67
2022/01/30 01:00:22;;;;;;;4.50;1.77;;;;;;;;;;5028258;28;20037;-68
2022/01/30 01:02:48;;;;;;;6.93;1.77;;;;;;;;;;5028857;28;20060;-67
2022/01/30 01:05:15;;;;;;;6.25;1.70;;;;;;;;;;5028637;28;20035;-67
2022/01/30 01:07:48;;;;;;;4.18;1.70;;;;;;;;;;5027494;28;20025;-67
2022/01/30 01:23:44;;;;;;;2.78;1.60;;;;;;;;;;5027483;28;20083;-67
2022/01/30 01:26:11;;;;;;;4.30;1.92;;;;;;;;;;5027683;28;20056;-67
2022/01/30 01:28:37;;;;;;;4.85;1.83;;;;;;;;;;5024265;28;20021;-67
2022/01/30 01:31:04;;;;;;;6.97;1.70;;;;;;;;;;5028096;28;20025;-67
2022/01/30 01:33:42;;;;;;;2.45;1.30;;;;;;;;;;5028097;28;20033;-67
2022/01/30 01:36:09;;;;;;;5.40;1.70;;;;;;;;;;5028545;28;20729;-67
2022/01/30 01:38:35;;;;;;;3.75;1.80;;;;;;;;;;5027812;28;20432;-67
2022/01/30 01:41:01;;;;;;;2.40;1.50;;;;;;;;;;5028089;28;20034;-67
2022/01/30 01:43:27;;;;;;;3.58;1.92;;;;;;;;;;5023449;28;20022;-67
2022/01/30 01:45:56;;;;;;;7.78;3.13;;;;;;;;;;5027078;28;20030;-67
2022/01/30 01:48:22;;;;;;;4.65;2.00;;;;;;;;;;5027521;28;20064;-67
2022/01/30 01:51:05;;;;;;;3.70;1.80;;;;;;;;;;5026987;28;20033;-67
2022/01/30 01:53:31;;;;;;;3.25;1.52;;;;;;;;;;5024136;28;20512;-71
2022/01/30 01:55:58;;;;;;;3.72;1.85;;;;;;;;;;5027910;28;20473;-67
2022/01/30 01:58:25;;;;;;;4.90;1.65;;;;;;;;;;5026162;28;20034;-68
2022/01/30 02:00:51;;;;;;;3.75;1.50;;;;;;;;;;5026698;28;20036;-67
2022/01/30 02:03:19;;;;;;;7.22;2.00;;;;;;;;;;5027030;28;20049;-67
2022/01/30 02:05:51;;;;;;;4.63;1.55;;;;;;;;;;5027630;28;20092;-67
2022/01/30 02:11:15;;;;;;;;;;;;;;;;;;5027931;28;20064;-67
2022/01/30 02:27:22;;;;;;;4.88;1.95;;;;;;;;;;5026238;28;20029;-67
2022/01/30 02:29:49;;;;;;;3.90;1.73;;;;;;;;;;5025274;28;20099;-67
2022/01/30 02:32:15;;;;;;;4.78;2.10;;;;;;;;;;5027786;28;20052;-67
2022/01/30 02:34:41;;;;;;;6.68;1.50;;;;;;;;;;5026849;28;20140;-67
2022/01/30 02:37:07;;;;;;;3.60;1.90;;;;;;;;;;5027277;28;20059;-67
2022/01/30 02:39:34;;;;;;;3.53;1.75;;;;;;;;;;5027105;28;20029;-67
2022/01/30 02:42:00;;;;;;;5.22;1.77;;;;;;;;;;5025456;28;20077;-67
2022/01/30 02:46:56;;;;;;;4.70;1.73;;;;;;;;;;5026515;28;20039;-67
2022/01/30 02:52:01;;;;;;;3.08;1.60;;;;;;;;;;5026830;28;20029;-67
2022/01/30 02:54:28;;;;;;;3.78;1.58;;;;;;;;;;5022672;28;20040;-68
2022/01/30 02:56:54;;;;;;;3.38;1.92;;;;;;;;;;5026185;28;20514;-67
2022/01/30 02:59:20;;;;;;;2.50;1.65;;;;;;;;;;5025498;28;20084;-67
2022/01/30 03:01:47;;;;;;;3.88;1.52;;;;;;;;;;5026415;28;20048;-68
2022/01/30 03:04:13;;;;;;;2.65;1.77;;;;;;;;;;5020268;28;20473;-67
2022/01/30 03:06:39;;;;;;;3.88;1.60;;;;;;;;;;5025121;28;20108;-67
2022/01/30 03:09:06;;;;;;;3.47;1.50;;;;;;;;;;5025944;28;20470;-67
2022/01/30 03:11:33;;;;;;;4.15;1.40;;;;;;;;;;5024655;28;20048;-67
2022/01/30 03:13:59;;;;;;;3.75;1.60;;;;;;;;;;5025283;28;20026;-67
2022/01/30 03:16:25;;;;;;;5.93;1.60;;;;;;;;;;5025451;28;20049;-67
2022/01/30 03:18:51;;;;;;;2.40;1.65;;;;;;;;;;5024914;28;20052;-69
2022/01/30 03:21:18;;;;;;;4.35;1.65;;;;;;;;;;5024051;28;20393;-67
2022/01/30 03:23:44;;;;;;;5.28;1.20;;;;;;;;;;5026366;28;20028;-67
2022/01/30 03:26:12;;;;;;;6.60;1.58;;;;;;;;;;5024132;28;20509;-67
2022/01/30 03:28:40;;;;;;;7.45;1.60;;;;;;;;;;5025903;28;20030;-67
2022/01/30 03:31:09;;;;;;;2.70;1.65;;;;;;;;;;5024905;28;20022;-67
2022/01/30 03:33:35;;;;;;;4.22;1.60;;;;;;;;;;5022284;28;20482;-68
2022/01/30 03:36:01;;;;;;;3.28;1.60;;;;;;;;;;5025787;28;20470;-67
2022/01/30 03:38:27;;;;;;;4.78;1.75;;;;;;;;;;5026269;28;20187;-67
2022/01/30 03:40:54;;;;;;;3.30;1.38;;;;;;;;;;5024293;28;20029;-67
2022/01/30 03:43:21;;;;;;;4.88;1.60;;;;;;;;;;5025341;28;20022;-67
2022/01/30 03:45:47;;;;;;;3.53;1.70;;;;;;;;;;5025649;28;20469;-68
2022/01/30 03:48:14;;;;;;;2.97;1.63;;;;;;;;;;5025842;28;20036;-67
2022/01/30 03:50:40;;;;;;;2.80;1.50;;;;;;;;;;5024165;28;20798;-67
2022/01/30 03:53:07;;;;;;;2.90;1.67;;;;;;;;;;5025562;28;20175;-67
2022/01/30 03:55:33;;;;;;;3.05;1.60;;;;;;;;;;5025442;28;20013;-67
2022/01/30 03:57:59;;;;;;;4.35;1.60;;;;;;;;;;5025951;28;20025;-67
2022/01/30 04:00:25;;;;;;;5.35;1.60;;;;;;;;;;5022574;28;20048;-67
2022/01/30 04:02:51;;;;;;;4.28;1.50;;;;;;;;;;5021026;28;20030;-68
2022/01/30 04:05:18;;;;;;;6.25;1.63;;;;;;;;;;5020794;28;20022;-67
2022/01/30 04:07:46;;;;;;;2.70;1.40;;;;;;;;;;5020933;28;20026;-67
2022/01/30 04:10:12;;;;;;;5.30;1.75;;;;;;;;;;5018312;28;20511;-67
2022/01/30 04:12:38;;;;;;;5.05;1.90;;;;;;;;;;5020746;28;20027;-67
2022/01/30 04:15:05;;;;;;;3.15;1.55;;;;;;;;;;5021064;28;20049;-67
2022/01/30 04:17:31;;;;;;;3.20;1.42;;;;;;;;;;5020926;28;20045;-67
2022/01/30 04:19:57;;;;;;;3.05;1.80;;;;;;;;;;5019293;28;20025;-67
2022/01/30 04:22:23;;;;;;;5.00;1.77;;;;;;;;;;5011805;28;20333;-67
2022/01/30 04:24:50;;;;;;;5.85;1.67;;;;;;;;;;5021287;28;20053;-67
2022/01/30 04:27:16;;;;;;;3.22;1.60;;;;;;;;;;5018595;28;20037;-67
2022/01/30 04:29:42;;;;;;;5.95;1.60;;;;;;;;;;5020581;28;20440;-67
2022/01/30 04:32:10;;;;;;;3.97;1.42;;;;;;;;;;5021213;28;20033;-67
2022/01/30 04:34:37;;;;;;;3.47;1.80;;;;;;;;;;5020452;28;20028;-67
2022/01/30 04:37:03;;;;;;;3.97;1.65;;;;;;;;;;5020361;28;20129;-67
2022/01/30 04:58:24;;;;;;;3.88;1.40;;;;;;;;;;5021115;28;20554;-71
2022/01/30 05:06:05;;;;;;;4.72;1.50;;;;;;;;;;5017952;28;20612;-67
2022/01/30 05:08:31;;;;;;;2.92;1.60;;;;;;;;;;5020162;28;20049;-67
2022/01/30 05:10:58;;;;;;;3.40;1.42;;;;;;;;;;5022562;28;20029;-67
2022/01/30 05:13:28;;;;;;;6.55;1.63;;;;;;;;;;5013581;28;20051;-67
2022/01/30 05:15:55;;;;;;;4.05;1.55;;;;;;;;;;5012785;28;20049;-67
2022/01/30 05:18:25;;;;;;;2.88;1.52;;;;;;;;;;5021597;28;20053;-67
2022/01/30 05:20:52;;;;;;;7.40;1.65;;;;;;;;;;5021150;28;20045;-67
2022/01/30 05:23:18;;;;;;;6.70;1.95;;;;;;;;;;5021508;28;20025;-67
2022/01/30 05:25:45;;;;;;;2.83;1.60;;;;;;;;;;5019362;28;20322;-67
2022/01/30 05:28:12;;;;;;;4.43;1.77;;;;;;;;;;5020860;28;20027;-67
2022/01/30 05:30:38;;;;;;;4.65;1.60;;;;;;;;;;5021417;28;20057;-67
2022/01/30 05:33:04;;;;;;;6.28;1.60;;;;;;;;;;5021373;28;20034;-67
2022/01/30 05:35:31;;;;;;;4.10;1.50;;;;;;;;;;5020468;28;20150;-68
2022/01/30 05:37:57;;;;;;;3.42;1.38;;;;;;;;;;5019821;28;20111;-67
2022/01/30 05:40:24;;;;;;;3.85;1.50;;;;;;;;;;5020820;28;20045;-67
2022/01/30 05:42:50;;;;;;;6.20;1.65;;;;;;;;;;5020951;28;20030;-67
2022/01/30 05:48:15;;;;;;;2.70;1.23;;;;;;;;;;5012852;28;20103;-67
2022/01/30 05:50:42;;;;;;;2.40;1.30;;;;;;;;;;5020693;28;20257;-67
2022/01/30 05:53:08;;;;;;;4.30;1.40;;;;;;;;;;5020899;28;20021;-67
2022/01/30 05:55:34;;;;;;;2.83;1.70;;;;;;;;;;5020965;28;20041;-69
2022/01/30 05:58:01;;;;;;;3.72;1.48;;;;;;;;;;5019279;28;20087;-67
2022/01/30 06:00:27;;;;;;;3.70;1.27;;;;;;;;;;5020747;28;20033;-67
2022/01/30 06:02:54;;;;;;;3.95;1.30;;;;;;;;;;5020090;28;20037;-67
2022/01/30 06:05:20;;;;;;;2.63;1.45;;;;;;;;;;5020790;28;20556;-68
2022/01/30 06:07:51;;;;;;;4.25;2.00;;;;;;;;;;5019106;28;20033;-67
2022/01/30 06:10:18;;;;;;;2.78;1.50;;;;;;;;;;5019277;28;20579;-67
2022/01/30 06:12:44;;;;;;;2.28;1.30;;;;;;;;;;5020107;28;20056;-68
2022/01/30 06:15:10;;;;;;;2.47;1.40;;;;;;;;;;5020505;28;20036;-67
2022/01/30 06:17:36;;;;;;;2.85;1.20;;;;;;;;;;5018788;28;20030;-67
2022/01/30 06:20:03;;;;;;;2.58;1.20;;;;;;;;;;5020106;28;20037;-67
2022/01/30 06:22:29;;;;;;;3.38;1.42;;;;;;;;;;5020470;28;20058;-67
2022/01/30 06:24:55;;;;;;;3.08;1.23;;;;;;;;;;5020249;28;20425;-67
2022/01/30 06:27:22;;;;;;;3.05;1.70;;;;;;;;;;5019758;28;20428;-68
2022/01/30 06:29:48;;;;;;;5.80;1.83;;;;;;;;;;5020632;28;20592;-73
2022/01/30 06:32:15;;;;;;;55.95;7.43;;;;;;;;;;5017010;28;20389;-68
2022/01/30 06:34:42;;;;;;;64.15;5.78;;;;;;;;;;5018002;28;20428;-68
2022/01/30 06:37:08;;;;;;;17.65;2.17;;;;;;;;;;5021687;28;20044;-68
2022/01/30 06:39:34;;;;;;;11.20;2.47;;;;;;;;;;5019641;28;20036;-71
2022/01/30 06:42:00;;;;;;;4.32;1.33;;;;;;;;;;5021504;28;20071;-68
2022/01/30 06:44:26;;;;;;;6.30;1.27;;;;;;;;;;5022266;28;20488;-68
2022/01/30 06:46:52;;;;;;;10.95;1.70;;;;;;;;;;5020397;28;20037;-72
2022/01/30 06:49:19;;;;;;;5.20;1.60;;;;;;;;;;5021848;28;20048;-68
2022/01/30 06:51:45;;;;;;;4.43;1.27;;;;;;;;;;5021941;28;20036;-68
2022/01/30 06:54:11;;;;;;;2.47;1.00;;;;;;;;;;5012230;28;20041;-69
2022/01/30 06:56:37;;;;;;;3.80;1.63;;;;;;;;;;5012481;28;20112;-69
2022/01/30 06:59:03;;;;;;;2.33;1.30;;;;;;;;;;5016251;28;20017;-70
2022/01/30 07:01:29;;;;;;;2.05;0.88;;;;;;;;;;5021640;28;20099;-70
2022/01/30 07:03:57;;;;;;;3.30;1.20;;;;;;;;;;5020094;28;20053;-69
2022/01/30 07:06:23;;;;;;;4.38;1.58;;;;;;;;;;5020519;28;20033;-68
2022/01/30 07:08:49;;;;;;;2.10;1.08;;;;;;;;;;5021579;28;20017;-68
2022/01/30 07:11:15;;;;;;;5.15;2.13;;;;;;;;;;5018868;28;20470;-68
2022/01/30 07:13:42;;;;;;;15.20;10.18;;;;;;;;;;5019881;28;20033;-67
2022/01/30 07:16:08;;;;;;;11.30;7.75;;;;;;;;;;5018213;28;20622;-68
2022/01/30 07:18:34;;;;;;;3.20;1.70;;;;;;;;;;5020524;28;20036;-69
2022/01/30 07:21:03;;;;;;;6.85;3.38;;;;;;;;;;5021078;28;20033;-68
2022/01/30 07:23:30;;;;;;;4.63;2.47;;;;;;;;;;5019638;28;20041;-68
2022/01/30 07:25:56;;;;;;;3.40;1.95;;;;;;;;;;5021156;28;20017;-69
2022/01/30 07:28:22;;;;;;;4.95;2.30;;;;;;;;;;5019907;28;20032;-68
2022/01/30 07:30:48;;;;;;;3.38;1.77;;;;;;;;;;5020898;28;20079;-68
2022/01/30 07:33:14;;;;;;;4.78;1.42;;;;;;;;;;5019913;28;20079;-69
2022/01/30 07:35:41;;;;;;;2.65;1.10;;;;;;;;;;5020848;28;20029;-68
2022/01/30 07:38:08;;;;;;;2.38;0.93;;;;;;;;;;5019231;28;20064;-68
2022/01/30 07:40:34;;;;;;;2.88;1.40;;;;;;;;;;5020466;28;20029;-71
2022/01/30 07:43:01;;;;;;;2.30;1.30;;;;;;;;;;5021272;28;20108;-68
2022/01/30 07:45:27;;;;;;;4.05;1.20;;;;;;;;;;5020868;28;20060;-68
2022/01/30 07:47:53;;;;;;;2.92;1.20;;;;;;;;;;5019426;28;20532;-68
2022/01/30 07:50:19;;;;;;;3.47;1.35;;;;;;;;;;5019775;28;20104;-74
2022/01/30 07:52:45;;;;;;;2.63;0.93;;;;;;;;;;5020067;28;20021;-68
2022/01/30 07:55:12;;;;;;;6.93;1.23;;;;;;;;;;5020801;28;20048;-69
2022/01/30 07:57:38;;;;;;;1.77;1.00;;;;;;;;;;5020364;28;20079;-68
2022/01/30 08:00:05;;;;;;;1.95;1.10;;;;;;;;;;5020920;28;20029;-68
2022/01/30 08:02:31;;;;;;;2.90;1.02;;;;;;;;;;5019054;28;20507;-68
2022/01/30 08:04:57;;;;;;;4.88;1.38;;;;;;;;;;5020279;28;20108;-71
2022/01/30 08:07:26;;;;;;;4.85;1.52;;;;;;;;;;5020121;28;20061;-72
2022/01/30 08:09:52;;;;;;;4.50;1.60;;;;;;;;;;5017347;28;20537;-73
2022/01/30 08:12:19;;;;;;;2.75;1.30;;;;;;;;;;5019144;28;20033;-73
2022/01/30 08:14:46;;;;;;;2.05;1.17;;;;;;;;;;5020536;28;20049;-67
2022/01/30 08:17:18;;;;;;;8.07;2.20;;;;;;;;;;5020585;28;20160;-74
2022/01/30 08:19:46;;;;;;;3.30;1.52;;;;;;;;;;5019525;28;20504;-69
2022/01/30 08:22:12;;;;;;;3.85;1.50;;;;;;;;;;5021223;28;20389;-67
2022/01/30 08:24:39;;;;;;;5.68;1.92;;;;;;;;;;5019715;28;20083;-69
2022/01/30 08:27:05;;;;;;;4.18;1.10;;;;;;;;;;5020867;28;20033;-68
2022/01/30 08:29:31;;;;;;;3.58;2.40;;;;;;;;;;5020774;28;20029;-68
2022/01/30 08:31:58;;;;;;;4.30;1.88;;;;;;;;;;5023271;28;20478;-72
2022/01/30 08:34:25;;;;;;;3.38;1.35;;;;;;;;;;5022102;28;20037;-68
2022/01/30 08:36:51;;;;;;;2.03;1.00;;;;;;;;;;5023770;28;20029;-68
2022/01/30 08:39:17;;;;;;;3.95;1.30;;;;;;;;;;5024262;28;20025;-73
2022/01/30 08:41:43;;;;;;;2.40;1.20;;;;;;;;;;5023979;28;20030;-68
2022/01/30 08:44:09;;;;;;;3.90;1.23;;;;;;;;;;5024268;28;20470;-70
2022/01/30 08:46:36;;;;;;;3.58;1.23;;;;;;;;;;5023088;28;20037;-70
2022/01/30 08:49:02;;;;;;;1.98;1.27;;;;;;;;;;5023062;28;20117;-71
2022/01/30 08:51:28;;;;;;;2.97;1.13;;;;;;;;;;5023804;28;20447;-68
2022/01/30 08:53:54;;;;;;;3.67;2.10;;;;;;;;;;5022122;28;20032;-69
2022/01/30 08:56:22;;;;;;;6.32;2.65;;;;;;;;;;5023643;28;20041;-68
2022/01/30 08:58:48;;;;;;;5.97;1.52;;;;;;;;;;5023887;28;20037;-68
2022/01/30 09:01:15;;;;;;;7.15;2.75;;;;;;;;;;5023307;28;20045;-68
2022/01/30 09:03:43;;;;;;;4.03;2.30;;;;;;;;;;5023920;28;20025;-68
2022/01/30 09:06:09;;;;;;;4.60;2.70;;;;;;;;;;5022069;28;20029;-69
2022/01/30 09:08:35;;;;;;;5.57;1.83;;;;;;;;;;5023654;28;20067;-68
2022/01/30 09:11:01;;;;;;;3.42;1.80;;;;;;;;;;5023629;28;20038;-68
2022/01/30 09:13:28;;;;;;;2.92;1.45;;;;;;;;;;5023321;28;20060;-68
2022/01/30 09:15:58;;;;;;;2.55;1.40;;;;;;;;;;5023127;28;20346;-68
2022/01/30 09:18:26;;;;;;;2.80;1.85;;;;;;;;;;5021506;28;20032;-69
2022/01/30 09:20:53;;;;;;;2.40;1.35;;;;;;;;;;5023486;28;20604;-68
2022/01/30 09:23:19;;;;;;;3.58;1.30;;;;;;;;;;5023017;28;20136;-69
2022/01/30 09:25:46;;;;;;;3.95;1.63;;;;;;;;;;5023549;28;20018;-68
2022/01/30 09:28:12;;;;;;;3.90;1.10;;;;;;;;;;5023920;28;20061;-68
2022/01/30 09:30:38;;;;;;;5.22;1.30;;;;;;;;;;5021912;28;20720;-68
2022/01/30 09:33:04;;;;;;;1.95;0.88;;;;;;;;;;5019588;28;20052;-68
2022/01/30 09:35:30;;;;;;;9.52;1.40;;;;;;;;;;5019944;28;20110;-68
2022/01/30 09:37:58;;;;;;;2.55;1.33;;;;;;;;;;5020908;28;20065;-69
2022/01/30 09:40:24;;;;;;;2.92;1.10;;;;;;;;;;5021700;28;20029;-67
2022/01/30 09:42:50;;;;;;;2.13;1.30;;;;;;;;;;5022657;28;20064;-68
2022/01/30 09:45:20;;;;;;;1.83;0.90;;;;;;;;;;5023168;28;20044;-68
2022/01/30 09:47:47;;;;;;;3.90;1.10;;;;;;;;;;5023174;28;20040;-69
2022/01/30 09:50:16;;;;;;;3.28;1.10;;;;;;;;;;5023161;28;20022;-68
2022/01/30 09:52:42;;;;;;;4.25;1.23;;;;;;;;;;5022204;28;20029;-69
2022/01/30 09:55:09;;;;;;;3.05;1.50;;;;;;;;;;5022374;28;20413;-69
2022/01/30 09:57:35;;;;;;;6.38;3.15;;;;;;;;;;5022685;28;20025;-72
2022/01/30 10:00:04;;;;;;;3.80;1.40;;;;;;;;;;5021905;28;20481;-69
2022/01/30 10:02:30;;;;;;;3.05;1.20;;;;;;;;;;5022614;28;20045;-70
2022/01/30 10:04:56;;;;;;;3.63;1.60;;;;;;;;;;5021867;28;20022;-67
2022/01/30 10:07:26;;;;;;;3.08;1.50;;;;;;;;;;5021831;28;20405;-68
2022/01/30 10:10:06;;;;;;;3.97;1.90;;;;;;;;;;5021448;28;20021;-68
2022/01/30 10:12:33;;;;;;;5.85;2.53;;;;;;;;;;5022402;28;20790;-69
2022/01/30 10:15:06;;;;;;;3.60;1.17;;;;;;;;;;5021153;28;20572;-70
2022/01/30 10:17:39;;;;;;;3.40;1.60;;;;;;;;;;5021230;28;20658;-69
2022/01/30 10:20:12;;;;;;;3.58;1.48;;;;;;;;;;5022853;28;20488;-68
2022/01/30 10:22:48;;;;;;;4.18;1.27;;;;;;;;;;5020514;28;20064;-73
2022/01/30 10:25:40;;;;;;;4.68;1.52;;;;;;;;;;5021736;28;20547;-68
2022/01/30 10:28:13;;;;;;;8.60;2.17;;;;;;;;;;5018640;28;20041;-69
2022/01/30 10:30:43;;;;;;;3.75;1.83;;;;;;;;;;5021867;28;20049;-70
2022/01/30 10:33:12;;;;;;;5.13;1.85;;;;;;;;;;5014168;28;20034;-69
2022/01/30 10:35:51;;;;;;;4.18;2.28;;;;;;;;;;5019690;28;20030;-68
2022/01/30 10:38:21;;;;;;;4.05;1.85;;;;;;;;;;5021929;28;20036;-72
2022/01/30 10:40:54;;;;;;;5.55;1.90;;;;;;;;;;5021478;28;20598;-72
2022/01/30 10:43:20;;;;;;;11.93;7.07;;;;;;;;;;5014268;28;20041;-70
2022/01/30 10:45:47;;;;;;;9.80;6.30;;;;;;;;;;5019871;28;20025;-71
2022/01/30 10:48:17;;;;;;;3.80;2.17;;;;;;;;;;5011491;28;20040;-71
2022/01/30 10:50:45;;;;;;;4.03;3.05;;;;;;;;;;5017661;28;20500;-70
2022/01/30 10:53:20;;;;;;;3.92;2.33;;;;;;;;;;5020275;28;20064;-70
2022/01/30 10:55:47;;;;;;;4.55;2.22;;;;;;;;;;5020270;28;20112;-69
2022/01/30 10:58:15;;;;;;;6.78;2.20;;;;;;;;;;5020091;28;20029;-72
2022/01/30 11:00:43;;;;;;;3.97;1.90;;;;;;;;;;5020978;28;20037;-72
2022/01/30 11:03:10;;;;;;;3.45;1.85;;;;;;;;;;5018624;28;20125;-70
2022/01/30 11:05:57;;;;;;;5.93;2.13;;;;;;;;;;5017104;28;20034;-70
2022/01/30 11:08:25;;;;;;;4.15;1.98;;;;;;;;;;5020172;28;20034;-71
2022/01/30 11:11:33;;;;;;;4.97;2.00;;;;;;;;;;5021265;28;20041;-70
2022/01/30 11:14:15;;;;;;;4.25;2.60;;;;;;;;;;5015366;28;20061;-71
2022/01/30 11:19:27;;;;;;;3.00;2.00;;;;;;;;;;5021205;28;20063;-71
2022/01/30 11:22:01;;;;;;;5.30;2.40;;;;;;;;;;5018276;28;20034;-73
2022/01/30 11:24:27;;;;;;;3.28;2.20;;;;;;;;;;5018282;28;20068;-70
2022/01/30 11:26:53;;;;;;;5.38;3.00;;;;;;;;;;5020485;28;20040;-69
2022/01/30 11:29:20;;;;;;;4.43;2.80;;;;;;;;;;5020233;28;20029;-70
2022/01/30 11:31:46;;;;;;;4.85;2.70;;;;;;;;;;5017375;28;20029;-71
2022/01/30 11:34:13;;;;;;;4.70;2.88;;;;;;;;;;5019174;28;20033;-68
2022/01/30 11:36:41;;;;;;;6.20;2.78;;;;;;;;;;5016547;28;20038;-69
2022/01/30 11:39:08;;;;;;;6.53;2.67;;;;;;;;;;5020828;28;20026;-68
2022/01/30 11:41:35;;;;;;;4.75;3.55;;;;;;;;;;5019932;28;20026;-67
2022/01/30 11:44:19;;;;;;;9.43;5.22;;;;;;;;;;5020759;28;20021;-69
2022/01/30 11:46:58;;;;;;;6.35;4.72;;;;;;;;;;5019366;28;20132;-67
2022/01/30 11:49:41;;;;;;;8.98;4.90;;;;;;;;;;5018163;28;20026;-67
2022/01/30 11:52:11;;;;;;;6.20;3.92;;;;;;;;;;5015448;28;20031;-69
2022/01/30 11:54:43;;;;;;;8.13;4.15;;;;;;;;;;5020081;28;20041;-67
2022/01/30 11:57:18;;;;;;;6.30;3.67;;;;;;;;;;5017900;28;20029;-68
2022/01/30 11:59:45;;;;;;;6.43;3.42;;;;;;;;;;5019330;28;20029;-68
2022/01/30 12:02:34;;;;;;;7.55;3.90;;;;;;;;;;5023451;28;20045;-68
2022/01/30 12:05:08;;;;;;;5.30;3.47;;;;;;;;;;5014254;28;20037;-69
2022/01/30 12:07:41;;;;;;;7.75;3.30;;;;;;;;;;5016895;28;20021;-70
2022/01/30 12:10:17;;;;;;;6.85;3.65;;;;;;;;;;5017434;28;20416;-69
2022/01/30 12:12:56;;;;;;;8.05;5.10;;;;;;;;;;5020769;28;20029;-70
2022/01/30 12:15:41;;;;;;;7.05;4.07;;;;;;;;;;5022300;28;20037;-68
2022/01/30 12:18:11;;;;;;;9.35;4.45;;;;;;;;;;5017452;28;20500;-68
2022/01/30 12:20:56;;;;;;;10.32;4.40;;;;;;;;;;5024266;28;20030;-71
2022/01/30 12:23:26;;;;;;;8.55;4.40;;;;;;;;;;5018676;28;20148;-69
2022/01/30 12:25:58;;;;;;;5.88;3.60;;;;;;;;;;5023782;28;20034;-68
2022/01/30 12:28:45;;;;;;;6.68;3.55;;;;;;;;;;5022906;28;20068;-69
2022/01/30 12:31:34;;;;;;;9.57;4.07;;;;;;;;;;5019785;28;20037;-71
2022/01/30 12:34:02;;;;;;;7.63;4.30;;;;;;;;;;5017501;28;20048;-72
2022/01/30 12:36:28;;;;;;;5.68;3.70;;;;;;;;;;5020399;28;20037;-71
2022/01/30 12:38:55;;;;;;;7.88;3.95;;;;;;;;;;5021694;28;20171;-71
2022/01/30 12:41:23;;;;;;;8.25;3.92;;;;;;;;;;5024335;28;20084;-70
2022/01/30 12:43:57;;;;;;;7.68;3.50;;;;;;;;;;5024777;28;20617;-69
2022/01/30 12:46:27;;;;;;;6.72;2.80;;;;;;;;;;5021174;28;20037;-71
2022/01/30 12:49:00;;;;;;;4.68;2.40;;;;;;;;;;5024264;28;20040;-74
2022/01/30 12:51:27;;;;;;;4.93;3.05;;;;;;;;;;5017181;28;20033;-70
2022/01/30 12:53:55;;;;;;;6.18;3.08;;;;;;;;;;5020397;28;20021;-73
2022/01/30 12:56:22;;;;;;;6.43;3.42;;;;;;;;;;5024271;28;20134;-71
2022/01/30 12:58:49;;;;;;;8.13;5.15;;;;;;;;;;5024403;28;20021;-71
2022/01/30 13:01:15;;;;;;;8.65;4.32;;;;;;;;;;5024574;28;20202;-70
2022/01/30 13:03:42;;;;;;;7.25;4.28;;;;;;;;;;5022858;28;20562;-72
2022/01/30 13:06:09;;;;;;;5.85;3.65;;;;;;;;;;5022323;28;20060;-71
2022/01/30 13:08:54;;;;;;;7.40;3.88;;;;;;;;;;5024670;28;20548;-70
2022/01/30 13:11:22;;;;;;;7.10;3.10;;;;;;;;;;5021730;28;20055;-70
2022/01/30 13:13:55;;;;;;;5.90;3.15;;;;;;;;;;5019527;28;20021;-70
2022/01/30 13:16:22;;;;;;;8.95;3.88;;;;;;;;;;5018080;28;20091;-71
2022/01/30 13:18:48;;;;;;;6.53;3.00;;;;;;;;;;5020994;28;20014;-72
2022/01/30 13:21:14;;;;;;;7.10;3.10;;;;;;;;;;5020773;28;20084;-69
2022/01/30 13:23:47;;;;;;;6.80;3.70;;;;;;;;;;5020601;28;20040;-71
2022/01/30 13:26:27;;;;;;;5.63;2.90;;;;;;;;;;5018521;28;20029;-69
2022/01/30 13:28:53;;;;;;;6.95;3.42;;;;;;;;;;5020961;28;20040;-69
2022/01/30 13:31:19;;;;;;;8.40;3.00;;;;;;;;;;5020880;28;20026;-71
2022/01/30 13:33:45;;;;;;;5.43;3.28;;;;;;;;;;5021119;28;20021;-71
2022/01/30 13:36:24;;;;;;;13.77;3.80;;;;;;;;;;5020578;28;20044;-69
2022/01/30 13:38:50;;;;;;;6.78;3.58;;;;;;;;;;5013326;28;20030;-70
2022/01/30 13:41:28;;;;;;;5.00;3.28;;;;;;;;;;5019349;28;20146;-71
2022/01/30 13:43:55;;;;;;;6.60;2.72;;;;;;;;;;5020906;28;20032;-71
2022/01/30 13:47:06;;;;;;;6.90;3.03;;;;;;;;;;5018312;28;20033;-71
2022/01/30 13:49:10;;;;;;;10.27;3.47;;;;;;;;;;5010907;28;20128;-70
2022/01/30 13:51:37;;;;;;;8.35;3.22;;;;;;;;;;5020804;28;20030;-70
2022/01/30 13:54:09;;;;;;;7.45;4.00;;;;;;;;;;5021079;28;20048;-71
2022/01/30 13:56:35;;;;;;;9.75;4.38;;;;;;;;;;5018510;28;20510;-71
2022/01/30 13:59:02;;;;;;;9.38;2.95;;;;;;;;;;5015225;28;20052;-71
2022/01/30 14:01:33;;;;;;;11.13;3.53;;;;;;;;;;5018418;28;20131;-71
2022/01/30 14:04:11;;;;;;;6.27;3.57;;;;;;;;;;5020963;28;20026;-71
2022/01/30 14:06:38;;;;;;;11.63;4.10;;;;;;;;;;5020514;28;20064;-71
2022/01/30 14:09:09;;;;;;;8.05;4.40;;;;;;;;;;5020680;28;20029;-71
2022/01/30 14:11:37;;;;;;;13.20;4.40;;;;;;;;;;5019488;28;20805;-70
2022/01/30 14:14:06;;;;;;;10.70;3.90;;;;;;;;;;5020163;28;20052;-70
2022/01/30 14:16:53;;;;;;;12.13;4.22;;;;;;;;;;5019784;28;20141;-70
2022/01/30 14:19:22;;;;;;;10.05;4.15;;;;;;;;;;5019946;28;20422;-69
2022/01/30 14:21:50;;;;;;;34.53;20.63;;;;;;;;;;5020339;28;20381;-69
2022/01/30 14:24:17;;;;;;;19.40;9.68;;;;;;;;;;5013156;28;20032;-70
2022/01/30 14:26:43;;;;;;;10.02;6.03;;;;;;;;;;5019261;28;20088;-71
2022/01/30 14:29:14;;;;;;;13.48;5.60;;;;;;;;;;5019331;28;20032;-74
2022/01/30 14:31:49;;;;;;;7.75;3.33;;;;;;;;;;5017636;28;20029;-69
2022/01/30 14:34:15;;;;;;;11.05;4.05;;;;;;;;;;5018109;28;20047;-73
2022/01/30 14:36:43;;;;;;;8.57;3.42;;;;;;;;;;5019434;28;20479;-71
2022/01/30 14:39:11;;;;;;;9.05;4.38;;;;;;;;;;5019501;28;20112;-71
2022/01/30 14:41:37;;;;;;;14.88;4.60;;;;;;;;;;5019279;28;20041;-72
2022/01/30 14:44:03;;;;;;;11.88;4.40;;;;;;;;;;5018209;28;20598;-70
2022/01/30 14:46:29;;;;;;;9.48;3.67;;;;;;;;;;5017600;28;20037;-74
2022/01/30 14:48:56;;;;;;;8.30;3.78;;;;;;;;;;5014145;28;20029;-72
2022/01/30 14:51:22;;;;;;;7.47;3.63;;;;;;;;;;5019896;28;20045;-71
2022/01/30 14:53:48;;;;;;;8.27;3.30;;;;;;;;;;5018883;28;20017;-67
2022/01/30 14:56:14;;;;;;;11.85;3.92;;;;;;;;;;5017438;28;20037;-69
2022/01/30 14:58:41;;;;;;;11.27;3.33;;;;;;;;;;5018215;28;20036;-74
2022/01/30 15:01:07;;;;;;;12.38;3.72;;;;;;;;;;5018957;28;20045;-73
2022/01/30 15:03:33;;;;;;;13.55;3.60;;;;;;;;;;5019286;28;20039;-71
2022/01/30 15:06:03;;;;;;;13.13;3.60;;;;;;;;;;5018825;28;20109;-76
2022/01/30 15:08:29;;;;;;;11.43;3.72;;;;;;;;;;5011711;28;20057;-72
2022/01/30 15:10:56;;;;;;;5.95;3.03;;;;;;;;;;5019666;28;20033;-72
2022/01/30 15:13:23;;;;;;;13.52;4.18;;;;;;;;;;5021789;28;20850;-71
2022/01/30 15:15:51;;;;;;;11.65;4.20;;;;;;;;;;5017420;28;20519;-71
2022/01/30 15:18:23;;;;;;;9.70;3.53;;;;;;;;;;5021163;28;20061;-74
2022/01/30 15:20:50;;;;;;;12.05;3.55;;;;;;;;;;5018307;28;20033;-71
2022/01/30 15:23:18;;;;;;;7.97;2.85;;;;;;;;;;5020275;28;20030;-72
2022/01/30 15:25:44;;;;;;;8.50;3.28;;;;;;;;;;5021294;28;20539;-73
2022/01/30 15:28:10;;;;;;;13.10;3.83;;;;;;;;;;5021119;28;20030;-71
2022/01/30 15:30:37;;;;;;;13.10;3.83;;;;;;;;;;5013218;28;20033;-68
2022/01/30 15:33:03;;;;;;;14.18;4.50;;;;;;;;;;5019756;28;20033;-70
2022/01/30 15:35:29;;;;;;;15.15;4.30;;;;;;;;;;5020557;28;20025;-71
2022/01/30 15:37:55;;;;;;;14.35;3.72;;;;;;;;;;5020207;28;20025;-73
2022/01/30 15:40:22;;;;;;;8.05;3.28;;;;;;;;;;5018804;28;20056;-73
2022/01/30 15:42:48;;;;;;;14.07;4.47;;;;;;;;;;5021422;28;20044;-71
2022/01/30 15:50:26;;;;;;;15.63;3.80;;;;;;;;;;5020598;28;20441;-69
2022/01/30 15:52:54;;;;;;;8.90;3.13;;;;;;;;;;5022292;28;20111;-70
2022/01/30 15:55:20;;;;;;;12.23;3.70;;;;;;;;;;5008049;28;20112;-69
2022/01/30 15:57:47;;;;;;;12.38;3.65;;;;;;;;;;5017267;28;20021;-69